Terminal Aerodrome Forecast
Issued by NWS Billings, MT

Home | Current Version | Previous Version | Graphics & Text | Print | Product List | Glossary On
Versions: 1 2 3 4 5 6 7 8 9 10 11 12 13 14 15 16 17 18
000
FTUS45 KBYZ 292322
TAFMLS
TAF
KMLS 292322Z 3000/3024 24006KT P6SM VCSH SCT090
     FM300300 07007KT P6SM VCSH SCT060
     FM300600 12006KT P6SM VCSH SCT040
     FM301200 28007KT P6SM VCSH SCT012 OVC030
     FM301500 32015G24KT P6SM VCTS SCT025CB OVC035
     FM302000 32023G30KT P6SM VCTS BKN050CB=

USA.gov is the U.S. government's official web portal to all federal, state and local government web resources and services.